Flight Track Log - Related Links

Times and Time Zones

All times are in EDT time to prevent confusion due to time zone crossing. See the THY2339 flight status page for this flight to view local times or setup timezone preferences in your user account.


Time Position Orientation Groundspeed Altitude Reporting Facility
EDT Latitude Longitude Course Direction KTS MPH feet Rate Location/Type
Thu 03:03:00 PM 38.7942 27.4573 25° Northeast  Level Estimated
Thu 03:04:00 PM 38.8569 27.4952 25° Northeast  Level Estimated
Thu 03:05:00 PM 38.9196 27.5331 25° Northeast  Level Estimated
Thu 03:06:00 PM 38.9822 27.5711 25° Northeast  Level Estimated
Thu 03:07:00 PM 39.0448 27.6091 25° Northeast  Level Estimated
Thu 03:08:00 PM 39.1075 27.6472 25° Northeast  Level Estimated
Thu 03:09:00 PM 39.1701 27.6854 25° Northeast  Level Estimated
Thu 03:10:00 PM 39.2327 27.7236 25° Northeast  Level Estimated
Thu 03:11:00 PM 39.2953 27.7619 25° Northeast  Level Estimated
Thu 03:12:00 PM 39.3578 27.8003 25° Northeast  Level Estimated
Thu 03:13:00 PM 39.4204 27.8388 25° Northeast  Level Estimated
Thu 03:14:00 PM 39.4830 27.8773 25° Northeast  Level Estimated
Thu 03:15:00 PM 39.5455 27.9159 25° Northeast  Level Estimated
Thu 03:16:00 PM 39.6080 27.9545 25° Northeast  Level Estimated
Thu 03:17:00 PM 39.6705 27.9933 25° Northeast  Level Estimated
Thu 03:18:00 PM 39.7330 28.0321 26° Northeast  Level Estimated
Thu 03:19:00 PM 39.7955 28.0709 26° Northeast  Level Estimated
Thu 03:20:00 PM 39.8580 28.1099 26° Northeast  Level Estimated
Thu 03:21:00 PM 39.9204 28.1489 26° Northeast  Level Estimated
Thu 03:22:00 PM 39.9829 28.1880 26° Northeast  Level Estimated
Thu 03:23:00 PM 40.0453 28.2271 26° Northeast  Level Estimated
Thu 03:24:00 PM 40.1077 28.2664 26° Northeast  Level Estimated
Thu 03:25:00 PM 40.1702 28.3057 26° Northeast  Level Estimated
Thu 03:26:00 PM 40.2326 28.3451 26° Northeast  Level Estimated
Thu 03:27:00 PM 40.2949 28.3845 26° Northeast  Level Estimated
Thu 03:28:00 PM 40.3573 28.4240 26° Northeast  Level Estimated
Thu 03:29:00 PM 40.4197 28.4636 26° Northeast  Level Estimated
Thu 03:30:00 PM 40.4820 28.5033 26° Northeast  Level Estimated
Thu 03:31:00 PM 40.5443 28.5430 26° Northeast  Level Estimated
Thu 03:32:00 PM 40.6066 28.5828 26° Northeast  Level Estimated
Thu 03:33:00 PM 40.6689 28.6227 26° Northeast  Level Estimated
Thu 03:34:00 PM 40.7312 28.6627 26° Northeast  Level Estimated
Thu 03:35:00 PM 40.7935 28.7027 26° Northeast  Level Estimated
Thu 03:36:00 PM 40.8558 28.7428 26° Northeast  Level Estimated
Thu 03:37:00 PM 40.9180 28.7830 26° Northeast  Level Estimated
Thu 03:38:00 PM 40.9769 28.8211 26° Northeast  Level Estimated
Thu 03:39:00 PM 40.9769 28.8211 21° North  Level Estimated
Thu 03:40:00 PM 40.9769 28.8211 21° North  Level Estimated
Thu 03:41:00 PM 40.9769 28.8211 21° North  Level Estimated
Thu 03:42:00 PM 40.9769 28.8211 21° North  Level Estimated
Thu 03:43:00 PM 40.9769 28.8211 21° North  Level Estimated
Thu 03:44:00 PM 40.9769 28.8211 21° North  Level Estimated
Thu 03:45:00 PM 40.9769 28.8211 21° North  Level Estimated
Thu 03:46:00 PM 40.9769 28.8211 21° North  Level Estimated
Thu 03:47:00 PM 40.9769 28.8211 21° North  Level Estimated
Thu 03:48:00 PM 40.9769 28.8211 21° North  Level Estimated

Login

Don't have an account? Register now (free) for customized features, flight alerts, and more!